createdAt,value
2023-01-23T00:04:13.583Z,22.20
2023-01-23T00:09:16.665Z,22.10
2023-01-23T00:14:20.900Z,22.20
2023-01-23T00:19:23.785Z,22.10
2023-01-23T00:24:26.706Z,22.00
2023-01-23T00:29:30.977Z,22.00
2023-01-23T00:34:33.916Z,21.90
2023-01-23T00:39:36.789Z,21.90
2023-01-23T00:44:41.046Z,21.70
2023-01-23T00:49:43.978Z,21.80
2023-01-23T00:54:47.007Z,21.60
2023-01-23T00:59:51.349Z,21.70
2023-01-23T01:04:54.287Z,21.70
2023-01-23T01:09:57.258Z,21.70
2023-01-23T01:15:02.274Z,21.60
2023-01-23T01:20:06.471Z,21.50
2023-01-23T01:25:10.092Z,21.50
2023-01-23T01:30:15.681Z,21.50
2023-01-23T01:35:18.759Z,21.40
2023-01-23T01:40:24.940Z,21.40
2023-01-23T01:46:04.960Z,21.40
2023-01-23T01:51:12.955Z,21.40
2023-01-23T01:56:17.491Z,21.30
2023-01-23T02:01:22.494Z,21.30
2023-01-23T02:06:26.316Z,21.30
2023-01-23T02:11:29.370Z,21.30
2023-01-23T02:16:40.807Z,21.30
2023-01-23T02:21:45.471Z,21.20
2023-01-23T02:26:50.055Z,21.10
2023-01-23T02:31:53.373Z,21.10
2023-01-23T02:36:56.841Z,21.10
2023-01-23T02:42:02.518Z,21.20
2023-01-23T02:47:11.670Z,21.10
2023-01-23T02:52:14.763Z,21.20
2023-01-23T02:57:19.089Z,21.10
2023-01-23T03:02:22.115Z,21.10
2023-01-23T03:07:25.113Z,21.00
2023-01-23T03:12:29.390Z,21.00
2023-01-23T03:17:32.609Z,21.00
2023-01-23T03:22:35.596Z,21.00
2023-01-23T03:27:39.854Z,21.00
2023-01-23T03:32:43.006Z,21.00
2023-01-23T03:37:46.295Z,21.00
2023-01-23T03:42:50.582Z,21.00
2023-01-23T03:47:53.513Z,20.90
2023-01-23T03:52:56.513Z,20.90
2023-01-23T03:58:00.829Z,20.80
2023-01-23T04:03:03.836Z,20.80
2023-01-23T04:08:07.154Z,20.90
2023-01-23T04:13:11.485Z,20.90
2023-01-23T04:18:14.417Z,20.90
2023-01-23T04:23:17.352Z,20.90
2023-01-23T04:28:22.149Z,20.70
2023-01-23T04:33:25.287Z,20.80
2023-01-23T04:38:29.837Z,20.80
2023-01-23T04:43:35.820Z,20.70
2023-01-23T04:48:38.714Z,20.70
2023-01-23T04:53:41.775Z,20.70
2023-01-23T04:58:46.054Z,20.60
2023-01-23T05:03:49.013Z,20.60
2023-01-23T05:08:52.587Z,20.60
2023-01-23T05:13:56.984Z,20.60
2023-01-23T05:18:59.841Z,20.50
2023-01-23T05:24:02.769Z,20.70
2023-01-23T05:29:07.184Z,20.60
2023-01-23T05:34:10.125Z,20.70
2023-01-23T05:39:13.010Z,21.00
2023-01-23T05:44:17.268Z,20.90
2023-01-23T05:49:20.231Z,20.90
2023-01-23T05:54:23.157Z,21.00
2023-01-23T05:59:27.417Z,21.10
2023-01-23T06:04:30.363Z,20.90
2023-01-23T06:09:33.410Z,20.90
2023-01-23T06:14:37.848Z,20.80
2023-01-23T06:19:40.857Z,20.80
2023-01-23T06:24:43.758Z,20.80
2023-01-23T06:29:48.082Z,20.90
2023-01-23T06:34:51.059Z,20.80
2023-01-23T06:39:53.986Z,20.80
2023-01-23T06:44:58.273Z,20.70
2023-01-23T06:50:02.015Z,20.70
2023-01-23T06:55:06.557Z,20.70
2023-01-23T07:00:12.504Z,20.60
2023-01-23T07:05:15.604Z,20.60
2023-01-23T07:10:18.825Z,20.50
2023-01-23T07:15:23.256Z,20.50
2023-01-23T07:20:28.098Z,20.60
2023-01-23T07:25:31.035Z,20.50
2023-01-23T07:30:35.856Z,20.80
2023-01-23T07:35:41.133Z,20.60
2023-01-23T07:40:45.400Z,20.70
2023-01-23T07:45:50.370Z,20.70
2023-01-23T07:50:53.318Z,20.50
2023-01-23T07:55:56.237Z,20.50
2023-01-23T08:01:00.608Z,20.50
2023-01-23T08:06:03.580Z,20.50
2023-01-23T08:11:07.259Z,20.50
2023-01-23T08:16:13.673Z,20.60
2023-01-23T08:21:16.847Z,20.70
2023-01-23T08:26:19.787Z,20.80
2023-01-23T08:31:24.369Z,20.80
2023-01-23T08:36:27.393Z,20.70
2023-01-23T08:41:30.368Z,20.70
2023-01-23T08:46:34.675Z,20.60
2023-01-23T08:51:37.590Z,20.60
2023-01-23T08:56:41.459Z,20.50
2023-01-23T09:01:47.872Z,20.50
2023-01-23T09:06:50.818Z,20.50
2023-01-23T09:11:54.820Z,20.60
2023-01-23T09:16:59.090Z,20.70
2023-01-23T09:22:02.018Z,20.70
2023-01-23T09:27:05.007Z,20.70
2023-01-23T09:32:09.377Z,20.60
2023-01-23T09:37:12.269Z,20.60
2023-01-23T09:42:20.185Z,20.60
2023-01-23T09:47:31.822Z,20.50
2023-01-23T09:52:39.933Z,20.50
2023-01-23T09:57:47.540Z,20.40
2023-01-23T10:02:53.414Z,20.40
2023-01-23T10:08:11.388Z,20.50
2023-01-23T10:13:18.109Z,20.60
2023-01-23T10:18:26.713Z,20.50
2023-01-23T10:23:42.394Z,20.60
2023-01-23T10:28:45.405Z,20.50
2023-01-23T10:33:55.400Z,20.50
2023-01-23T10:39:03.140Z,20.50
2023-01-23T10:44:14.540Z,20.40
2023-01-23T10:49:31.171Z,20.40
2023-01-23T10:54:46.680Z,20.30
2023-01-23T10:59:56.747Z,20.20
2023-01-23T11:05:05.491Z,20.20
2023-01-23T11:10:21.587Z,20.30
2023-01-23T11:15:26.280Z,20.50
2023-01-23T11:20:33.255Z,20.50
2023-01-23T11:25:38.994Z,20.50
2023-01-23T11:30:48.320Z,20.50
2023-01-23T11:36:01.843Z,20.50
2023-01-23T11:41:06.059Z,20.50
2023-01-23T11:46:22.998Z,20.40
2023-01-23T11:51:36.973Z,20.40
2023-01-23T11:56:53.063Z,20.30
2023-01-23T12:02:37.551Z,20.30
2023-01-23T12:07:50.386Z,20.40
2023-01-23T12:13:09.173Z,20.40
2023-01-23T12:18:23.154Z,20.40
2023-01-23T12:24:09.637Z,20.40
2023-01-23T12:29:40.037Z,20.40
2023-01-23T12:34:59.481Z,20.30
2023-01-23T12:40:12.867Z,20.30
2023-01-23T12:45:21.730Z,20.30
2023-01-23T12:50:30.638Z,20.20
2023-01-23T12:55:40.194Z,20.20
2023-01-23T13:00:58.300Z,20.20
2023-01-23T13:06:10.626Z,20.30
2023-01-23T13:11:40.630Z,20.40
2023-01-23T13:16:47.751Z,20.50
2023-01-23T13:22:18.973Z,20.70
2023-01-23T13:27:37.313Z,20.70
2023-01-23T13:32:40.279Z,20.80
2023-01-23T13:37:52.287Z,20.80
2023-01-23T13:42:56.634Z,20.80
2023-01-23T14:21:40.771Z,21.30
2023-01-23T14:26:50.431Z,21.20
2023-01-23T14:31:55.999Z,21.20
2023-01-23T14:37:04.987Z,21.20
2023-01-23T14:42:16.502Z,21.20
2023-01-23T14:47:34.253Z,21.20
2023-01-23T14:52:37.739Z,21.30
2023-01-23T14:57:41.139Z,21.40
2023-01-23T15:02:46.975Z,21.50
2023-01-23T15:07:54.377Z,21.40
2023-01-23T15:13:00.287Z,21.50
2023-01-23T15:18:16.311Z,21.40
2023-01-23T15:23:28.455Z,21.50
2023-01-23T15:28:32.858Z,21.50
2023-01-23T15:33:40.177Z,21.50
2023-01-23T15:38:47.697Z,21.50
2023-01-23T15:43:50.582Z,21.50
2023-01-23T15:48:55.155Z,21.60
2023-01-23T15:53:58.076Z,21.70
2023-01-23T15:59:02.760Z,21.80
2023-01-23T16:04:07.089Z,21.90
2023-01-23T16:09:18.398Z,22.20
2023-01-23T16:14:21.540Z,22.40
2023-01-23T16:19:25.805Z,22.80
2023-01-23T16:24:29.366Z,23.20
2023-01-23T16:29:34.186Z,23.40
2023-01-23T16:34:38.659Z,23.60
2023-01-23T16:39:43.486Z,23.90
2023-01-23T16:44:46.467Z,24.10
2023-01-23T16:49:52.964Z,24.20
2023-01-23T16:54:56.410Z,24.30
2023-01-23T16:59:59.760Z,24.50
2023-01-23T17:05:04.332Z,24.80
2023-01-23T17:10:08.030Z,25.10
2023-01-23T17:15:19.914Z,25.30
2023-01-23T17:20:24.626Z,25.60
2023-01-23T17:25:28.011Z,25.80
2023-01-23T17:30:30.892Z,25.90
2023-01-23T17:35:38.359Z,25.90
2023-01-23T17:40:41.466Z,25.90
2023-01-23T17:45:46.389Z,25.90
2023-01-23T17:50:50.867Z,25.90
2023-01-23T17:55:54.473Z,26.10
2023-01-23T18:00:57.464Z,26.30
2023-01-23T18:06:01.813Z,26.60
2023-01-23T18:11:04.836Z,26.90
2023-01-23T18:16:15.264Z,27.10
2023-01-23T18:21:21.296Z,27.10
2023-01-23T18:26:36.273Z,27.00
2023-01-23T18:31:48.042Z,26.90
2023-01-23T18:37:03.524Z,26.70
2023-01-23T18:42:16.467Z,26.60
2023-01-23T18:47:20.028Z,26.40
2023-01-23T18:52:31.610Z,26.30
2023-01-23T18:57:51.494Z,26.20
2023-01-23T19:02:58.050Z,26.10
2023-01-23T19:08:03.244Z,26.00
2023-01-23T19:13:19.817Z,25.90
2023-01-23T19:18:43.693Z,25.80
2023-01-23T19:23:57.342Z,25.80
2023-01-23T19:29:19.133Z,25.60
2023-01-23T19:34:23.658Z,25.50
2023-01-23T19:39:27.905Z,25.40
2023-01-23T19:44:31.096Z,25.30
2023-01-23T19:49:34.037Z,25.30
2023-01-23T19:54:38.305Z,25.20
2023-01-23T19:59:41.215Z,25.10
2023-01-23T20:04:44.166Z,25.10
2023-01-23T20:09:48.538Z,25.00
2023-01-23T20:14:51.559Z,24.90
2023-01-23T20:19:54.450Z,24.90
2023-01-23T20:24:58.742Z,24.80
2023-01-23T20:30:02.553Z,24.70
2023-01-23T20:35:06.165Z,24.60
2023-01-23T20:40:12.423Z,24.60
2023-01-23T20:45:15.404Z,24.40
2023-01-23T20:50:18.975Z,24.40
2023-01-23T20:55:23.519Z,24.30
2023-01-23T21:00:26.686Z,24.20
2023-01-23T21:05:29.577Z,24.10
2023-01-23T21:10:33.844Z,24.00
2023-01-23T21:15:36.766Z,24.00
2023-01-23T21:20:40.136Z,23.90
2023-01-23T21:25:44.505Z,23.90
2023-01-23T21:30:47.635Z,23.80
2023-01-23T21:35:51.046Z,23.70
2023-01-23T21:40:56.279Z,23.70
2023-01-23T21:45:59.227Z,23.70
2023-01-23T21:51:07.650Z,23.70
2023-01-23T21:56:13.910Z,23.60
2023-01-23T22:01:35.840Z,23.60
2023-01-23T22:06:40.534Z,23.50
2023-01-23T22:11:45.017Z,23.40
2023-01-23T22:16:49.810Z,23.40
2023-01-23T22:21:53.092Z,23.40
2023-01-23T22:26:57.486Z,23.50
2023-01-23T22:32:00.619Z,23.50
2023-01-23T22:37:03.642Z,23.50
2023-01-23T22:42:08.301Z,23.40
2023-01-23T22:47:11.298Z,23.40
2023-01-23T22:52:14.955Z,23.40
2023-01-23T22:57:19.170Z,23.30
2023-01-23T23:02:22.063Z,23.30
2023-01-23T23:07:24.955Z,23.20
2023-01-23T23:12:29.460Z,23.10
2023-01-23T23:17:32.429Z,23.00
2023-01-23T23:22:35.381Z,23.00
2023-01-23T23:27:39.853Z,22.90
2023-01-23T23:32:42.725Z,22.80
2023-01-23T23:37:45.628Z,22.80
2023-01-23T23:42:49.859Z,22.80
2023-01-23T23:47:52.807Z,22.70
2023-01-23T23:52:55.692Z,22.80
2023-01-23T23:58:00.349Z,22.80
